createdAt,value
2018-08-31T00:01:46.090Z,61.50
2018-08-31T00:04:41.362Z,62.00
2018-08-31T00:08:19.934Z,62.00
2018-08-31T00:12:58.198Z,62.00
2018-08-31T00:15:27.165Z,62.20
2018-08-31T00:17:56.128Z,63.00
2018-08-31T00:20:25.218Z,63.50
2018-08-31T00:22:54.196Z,64.90
2018-08-31T00:26:01.084Z,64.00
2018-08-31T00:29:57.204Z,64.00
2018-08-31T00:33:05.585Z,63.70
2018-08-31T00:35:43.273Z,63.30
2018-08-31T00:38:38.270Z,64.00
2018-08-31T00:41:17.404Z,64.30
2018-08-31T00:43:59.289Z,64.40
2018-08-31T00:46:28.262Z,64.70
2018-08-31T00:48:57.192Z,64.60
2018-08-31T00:51:26.173Z,64.00
2018-08-31T00:53:55.184Z,63.50
2018-08-31T00:56:24.236Z,63.50
2018-08-31T00:58:53.169Z,64.40
2018-08-31T01:01:22.194Z,65.20
2018-08-31T01:03:51.145Z,65.50
2018-08-31T01:06:20.113Z,64.80
2018-08-31T01:08:49.061Z,63.80
2018-08-31T01:11:18.068Z,63.90
2018-08-31T01:13:47.024Z,64.30
2018-08-31T01:16:16.014Z,63.30
2018-08-31T01:18:44.945Z,63.50
2018-08-31T01:21:13.913Z,63.30
2018-08-31T01:23:42.898Z,63.50
2018-08-31T01:26:12.006Z,64.10
2018-08-31T01:28:41.041Z,64.80
2018-08-31T01:31:10.039Z,65.10
2018-08-31T01:33:39.026Z,65.30
2018-08-31T01:36:08.002Z,65.30
2018-08-31T01:38:36.946Z,65.30
2018-08-31T01:41:06.284Z,66.00
2018-08-31T01:43:35.230Z,65.10
2018-08-31T01:46:04.217Z,66.40
2018-08-31T01:48:33.145Z,65.50
2018-08-31T01:51:07.265Z,65.30
2018-08-31T01:53:36.204Z,65.30
2018-08-31T01:56:05.289Z,65.00
2018-08-31T01:58:34.327Z,64.60
2018-08-31T02:01:03.365Z,64.90
2018-08-31T02:03:32.404Z,65.30
2018-08-31T02:06:01.447Z,65.00
2018-08-31T02:08:30.375Z,65.30
2018-08-31T02:10:59.362Z,64.90
2018-08-31T02:13:28.543Z,65.30
2018-08-31T02:15:57.620Z,64.40
2018-08-31T02:18:26.580Z,64.30
2018-08-31T02:20:55.597Z,65.00
2018-08-31T02:23:24.564Z,64.60
2018-08-31T02:25:53.626Z,65.10
2018-08-31T02:28:22.595Z,64.80
2018-08-31T02:30:51.578Z,65.00
2018-08-31T02:33:20.537Z,64.90
2018-08-31T02:35:49.535Z,64.60
2018-08-31T02:38:18.681Z,64.70
2018-08-31T02:40:47.694Z,65.20
2018-08-31T02:43:16.694Z,64.90
2018-08-31T02:45:45.672Z,64.90
2018-08-31T02:48:14.628Z,64.60
2018-08-31T02:50:43.627Z,65.30
2018-08-31T02:53:12.598Z,65.30
2018-08-31T02:55:41.556Z,65.40
2018-08-31T02:58:10.551Z,65.50
2018-08-31T03:00:39.512Z,65.50
2018-08-31T03:03:09.024Z,64.80
2018-08-31T03:05:37.984Z,64.90
2018-08-31T03:08:06.989Z,64.20
2018-08-31T03:10:35.920Z,64.40
2018-08-31T03:13:04.889Z,64.60
2018-08-31T03:15:33.877Z,65.30
2018-08-31T03:18:02.877Z,65.30
2018-08-31T03:20:31.889Z,65.50
2018-08-31T03:23:00.904Z,65.20
2018-08-31T03:25:29.850Z,65.10
2018-08-31T03:27:58.925Z,65.30
2018-08-31T03:30:27.877Z,65.30
2018-08-31T03:32:56.917Z,65.90
2018-08-31T03:35:25.869Z,66.00
2018-08-31T03:37:55.319Z,65.50
2018-08-31T03:40:24.465Z,65.90
2018-08-31T03:42:53.445Z,65.10
2018-08-31T03:45:22.453Z,65.60
2018-08-31T03:47:51.440Z,66.10
2018-08-31T03:50:20.389Z,65.90
2018-08-31T03:52:49.388Z,67.00
2018-08-31T03:55:18.508Z,66.10
2018-08-31T03:57:47.589Z,65.50
2018-08-31T04:00:16.537Z,64.80
2018-08-31T04:02:45.522Z,65.10
2018-08-31T04:05:14.505Z,64.80
2018-08-31T04:07:43.589Z,65.20
2018-08-31T04:10:12.546Z,64.90
2018-08-31T04:12:41.646Z,65.40
2018-08-31T04:15:10.997Z,64.40
2018-08-31T04:17:39.922Z,64.10
2018-08-31T04:20:09.509Z,64.10
2018-08-31T04:22:38.543Z,64.80
2018-08-31T04:25:07.473Z,65.10
2018-08-31T04:27:36.456Z,65.20
2018-08-31T04:30:06.913Z,64.80
2018-08-31T04:32:35.894Z,65.50
2018-08-31T04:35:05.452Z,66.10
2018-08-31T04:37:34.513Z,66.20
2018-08-31T04:40:04.953Z,66.00
2018-08-31T04:42:33.936Z,66.00
2018-08-31T04:45:03.538Z,66.40
2018-08-31T04:47:32.568Z,66.50
2018-08-31T04:50:02.865Z,66.50
2018-08-31T04:52:32.096Z,66.40
2018-08-31T04:55:01.070Z,66.50
2018-08-31T04:57:30.090Z,66.30
2018-08-31T04:59:59.043Z,66.40
2018-08-31T05:02:28.074Z,66.40
2018-08-31T05:04:57.015Z,66.50
2018-08-31T05:07:26.013Z,66.50
2018-08-31T05:09:54.965Z,66.50
2018-08-31T05:12:23.915Z,66.80
2018-08-31T05:14:53.897Z,66.20
2018-08-31T05:17:22.869Z,65.80
2018-08-31T05:19:51.842Z,66.30
2018-08-31T05:22:20.818Z,66.50
2018-08-31T05:24:49.836Z,66.90
2018-08-31T05:27:18.808Z,66.20
2018-08-31T05:29:47.784Z,67.10
2018-08-31T05:32:16.749Z,67.10
2018-08-31T05:34:45.777Z,67.10
2018-08-31T05:37:14.825Z,66.70
2018-08-31T05:39:43.818Z,67.00
2018-08-31T05:42:12.782Z,67.20
2018-08-31T05:44:41.866Z,67.10
2018-08-31T05:47:10.823Z,67.20
2018-08-31T05:49:39.808Z,68.20
2018-08-31T05:52:08.745Z,67.30
2018-08-31T05:54:37.866Z,67.60
2018-08-31T05:57:06.881Z,67.80
2018-08-31T05:59:35.858Z,67.50
2018-08-31T06:02:04.835Z,67.00
2018-08-31T06:04:33.833Z,67.00
2018-08-31T06:07:02.834Z,67.60
2018-08-31T06:09:31.808Z,67.10
2018-08-31T06:12:00.800Z,66.90
2018-08-31T06:14:29.805Z,67.80
2018-08-31T06:16:58.814Z,67.30
2018-08-31T06:19:27.877Z,67.10
2018-08-31T06:21:56.860Z,67.00
2018-08-31T06:24:25.883Z,67.30
2018-08-31T06:26:54.991Z,67.20
2018-08-31T06:29:23.987Z,66.80
2018-08-31T06:31:52.967Z,67.20
2018-08-31T06:34:21.971Z,67.20
2018-08-31T06:36:50.927Z,66.70
2018-08-31T06:39:19.927Z,66.10
2018-08-31T06:41:48.908Z,66.50
2018-08-31T06:44:17.881Z,67.00
2018-08-31T06:46:46.830Z,67.10
2018-08-31T06:49:15.833Z,67.30
2018-08-31T06:51:44.766Z,67.50
2018-08-31T06:54:13.721Z,67.50
2018-08-31T06:56:42.660Z,67.10
2018-08-31T06:59:12.354Z,67.50
2018-08-31T07:01:41.367Z,67.50
2018-08-31T07:04:10.413Z,67.00
2018-08-31T07:06:39.369Z,67.20
2018-08-31T07:09:10.373Z,67.50
2018-08-31T07:11:39.469Z,67.70
2018-08-31T07:14:08.974Z,67.50
2018-08-31T07:16:38.076Z,67.90
2018-08-31T07:19:07.335Z,67.20
2018-08-31T07:21:36.401Z,67.10
2018-08-31T07:24:05.388Z,67.30
2018-08-31T07:26:34.403Z,67.70
2018-08-31T07:29:03.349Z,67.30
2018-08-31T07:31:32.368Z,67.50
2018-08-31T07:34:01.548Z,67.50
2018-08-31T07:36:30.578Z,67.20
2018-08-31T07:38:59.581Z,67.10
2018-08-31T07:41:28.562Z,66.80
2018-08-31T07:43:58.597Z,66.60
2018-08-31T07:46:27.532Z,66.80
2018-08-31T07:48:56.458Z,67.00
2018-08-31T07:51:25.406Z,66.10
2018-08-31T07:53:54.376Z,66.40
2018-08-31T07:56:23.345Z,66.10
2018-08-31T07:58:52.272Z,65.60
2018-08-31T08:01:21.252Z,66.00
2018-08-31T08:03:50.154Z,65.70
2018-08-31T08:06:19.144Z,65.70
2018-08-31T08:08:48.165Z,66.50
2018-08-31T08:11:17.225Z,66.10
2018-08-31T08:13:46.165Z,65.30
2018-08-31T08:16:15.117Z,65.40
2018-08-31T08:18:44.026Z,64.90
2018-08-31T08:21:13.013Z,65.10
2018-08-31T08:23:41.986Z,64.60
2018-08-31T08:26:10.998Z,64.90
2018-08-31T08:28:40.054Z,64.90
2018-08-31T08:31:09.028Z,64.80
2018-08-31T08:33:37.957Z,64.60
2018-08-31T08:36:07.028Z,64.30
2018-08-31T08:38:35.917Z,64.40
2018-08-31T08:41:05.032Z,64.50
2018-08-31T08:43:33.949Z,64.30
2018-08-31T08:46:02.949Z,63.80
2018-08-31T08:48:31.987Z,63.90
2018-08-31T08:51:00.890Z,64.00
2018-08-31T08:53:29.800Z,64.20
2018-08-31T08:56:00.065Z,63.40
2018-08-31T08:58:29.024Z,63.00
2018-08-31T09:00:57.948Z,63.80
2018-08-31T09:03:27.033Z,63.20
2018-08-31T09:05:56.017Z,63.30
2018-08-31T09:08:25.048Z,63.00
2018-08-31T09:10:54.124Z,62.80
2018-08-31T09:13:24.171Z,62.70
2018-08-31T09:15:55.127Z,62.90
2018-08-31T09:18:28.160Z,63.10
2018-08-31T09:20:57.520Z,63.00
2018-08-31T09:23:27.130Z,63.10
2018-08-31T09:25:58.116Z,63.10
2018-08-31T09:28:27.097Z,62.90
2018-08-31T09:30:56.113Z,63.30
2018-08-31T09:33:25.089Z,63.20
2018-08-31T09:35:54.029Z,63.30
2018-08-31T09:38:23.094Z,62.70
2018-08-31T09:40:52.000Z,62.60
2018-08-31T09:43:20.986Z,63.00
2018-08-31T09:45:49.945Z,62.90
2018-08-31T09:48:18.909Z,63.00
2018-08-31T09:50:47.838Z,63.00
2018-08-31T09:53:16.826Z,62.60
2018-08-31T09:55:45.788Z,62.30
2018-08-31T09:58:14.798Z,62.20
2018-08-31T10:00:48.966Z,62.10
2018-08-31T10:03:23.318Z,62.00
2018-08-31T10:05:53.297Z,61.80
2018-08-31T10:08:23.343Z,61.50
2018-08-31T10:10:52.369Z,61.50
2018-08-31T10:13:21.338Z,61.20
2018-08-31T10:15:50.370Z,61.00
2018-08-31T10:18:19.370Z,61.10
2018-08-31T10:20:48.325Z,60.70
2018-08-31T10:23:17.376Z,60.40
2018-08-31T10:25:46.345Z,60.50
2018-08-31T10:28:15.348Z,60.50
2018-08-31T10:30:44.410Z,60.40
2018-08-31T10:33:13.387Z,60.40
2018-08-31T10:35:42.398Z,60.60
2018-08-31T10:38:11.407Z,60.00
2018-08-31T10:40:40.345Z,59.80
2018-08-31T10:43:09.316Z,60.40
2018-08-31T10:45:38.291Z,59.70
2018-08-31T10:48:07.273Z,59.90
2018-08-31T10:50:36.229Z,59.90
2018-08-31T10:53:05.216Z,59.60
2018-08-31T10:55:34.154Z,59.60
2018-08-31T10:58:03.148Z,59.40
2018-08-31T11:00:32.091Z,59.90
2018-08-31T11:03:01.148Z,59.50
2018-08-31T11:05:30.189Z,59.60
2018-08-31T11:07:59.233Z,59.50
2018-08-31T11:10:28.205Z,59.60
2018-08-31T11:12:57.201Z,59.60
2018-08-31T11:15:26.171Z,59.60
2018-08-31T11:17:55.173Z,59.50
2018-08-31T11:20:24.123Z,59.50
2018-08-31T11:22:53.317Z,59.40
2018-08-31T11:25:22.532Z,59.30
2018-08-31T11:27:51.660Z,59.50
2018-08-31T11:30:20.610Z,59.90
2018-08-31T11:32:49.637Z,59.70
2018-08-31T11:35:18.701Z,59.60
2018-08-31T11:37:47.648Z,60.60
2018-08-31T11:40:16.626Z,59.60
2018-08-31T11:42:45.573Z,59.40
2018-08-31T11:45:14.588Z,59.30
2018-08-31T11:47:43.533Z,59.20
2018-08-31T11:50:12.526Z,59.00
2018-08-31T11:52:41.485Z,59.10
2018-08-31T11:55:10.468Z,59.10
2018-08-31T11:57:39.456Z,59.10
2018-08-31T12:00:08.546Z,59.30
2018-08-31T12:02:37.468Z,59.20
2018-08-31T12:05:06.826Z,59.00
2018-08-31T12:07:35.813Z,59.00
2018-08-31T12:10:05.437Z,59.30
2018-08-31T12:12:34.370Z,59.10
2018-08-31T12:15:03.653Z,59.10
2018-08-31T12:17:32.789Z,58.90
2018-08-31T12:20:01.761Z,59.20
2018-08-31T12:22:30.810Z,59.30
2018-08-31T12:24:59.822Z,59.10
2018-08-31T12:27:29.107Z,59.00
2018-08-31T12:29:58.059Z,59.00
2018-08-31T12:32:27.010Z,59.20
2018-08-31T12:34:55.994Z,59.20
2018-08-31T12:37:24.950Z,59.00
2018-08-31T12:39:53.911Z,59.10
2018-08-31T12:42:22.844Z,59.00
2018-08-31T12:44:51.826Z,59.00
2018-08-31T12:47:20.747Z,58.90
2018-08-31T12:49:49.797Z,59.00
2018-08-31T12:52:18.730Z,59.20
2018-08-31T12:54:47.685Z,59.00
2018-08-31T12:57:16.633Z,58.90
2018-08-31T12:59:50.794Z,58.90
2018-08-31T13:02:19.811Z,58.90
2018-08-31T13:04:48.785Z,58.90
2018-08-31T13:07:17.749Z,58.60
2018-08-31T13:09:46.706Z,58.80
2018-08-31T13:12:15.630Z,58.90
2018-08-31T13:14:44.626Z,58.90
2018-08-31T13:17:13.689Z,58.90
2018-08-31T13:19:42.655Z,58.90
2018-08-31T13:22:11.618Z,59.20
2018-08-31T13:24:40.605Z,59.10
2018-08-31T13:27:09.512Z,59.30
2018-08-31T13:29:38.469Z,59.40
2018-08-31T13:32:07.529Z,59.40
2018-08-31T13:34:36.532Z,59.50
2018-08-31T13:37:05.464Z,59.60
2018-08-31T13:39:34.508Z,59.60
2018-08-31T13:42:03.691Z,59.60
2018-08-31T13:44:32.611Z,59.60
2018-08-31T13:47:02.151Z,59.40
2018-08-31T13:49:31.169Z,59.70
2018-08-31T13:52:00.143Z,59.50
2018-08-31T13:54:29.104Z,59.70
2018-08-31T13:56:58.192Z,59.70
2018-08-31T13:59:27.157Z,59.60
2018-08-31T14:01:56.154Z,59.30
2018-08-31T14:04:25.076Z,59.70
2018-08-31T14:06:54.109Z,59.60
2018-08-31T14:09:23.031Z,59.60
2018-08-31T14:11:51.994Z,60.80
2018-08-31T14:14:20.933Z,60.00
2018-08-31T14:16:49.923Z,60.20
2018-08-31T14:19:19.329Z,60.20
2018-08-31T14:21:48.310Z,60.40
2018-08-31T14:24:17.329Z,60.80
2018-08-31T14:26:46.329Z,61.50
2018-08-31T14:29:15.404Z,60.90
2018-08-31T14:31:44.391Z,61.00
2018-08-31T14:34:13.345Z,61.00
2018-08-31T14:36:42.367Z,61.20
2018-08-31T14:39:11.526Z,61.00
2018-08-31T14:41:40.487Z,61.00
2018-08-31T14:44:09.777Z,61.00
2018-08-31T14:46:39.210Z,61.00
2018-08-31T14:49:08.489Z,61.10
2018-08-31T14:51:37.565Z,61.30
2018-08-31T14:54:06.653Z,61.30
2018-08-31T14:56:35.618Z,61.70
2018-08-31T14:59:04.709Z,61.80
2018-08-31T15:01:33.711Z,61.70
2018-08-31T15:04:02.704Z,61.60
2018-08-31T15:06:31.687Z,61.90
2018-08-31T15:09:00.764Z,61.60
2018-08-31T15:11:29.766Z,61.60
2018-08-31T15:13:58.814Z,61.50
2018-08-31T15:16:27.812Z,61.60
2018-08-31T15:18:56.945Z,61.70
2018-08-31T15:21:25.916Z,61.50
2018-08-31T15:23:54.886Z,61.60
2018-08-31T15:26:23.925Z,61.30
2018-08-31T15:28:52.864Z,61.30
2018-08-31T15:31:21.875Z,61.20
2018-08-31T15:33:50.851Z,61.20
2018-08-31T15:36:19.902Z,61.30
2018-08-31T15:38:48.950Z,61.70
2018-08-31T15:41:17.909Z,61.70
2018-08-31T15:43:46.849Z,61.30
2018-08-31T15:46:15.833Z,61.30
2018-08-31T15:48:44.855Z,61.30
2018-08-31T15:51:13.828Z,61.30
2018-08-31T15:53:42.768Z,61.30
2018-08-31T15:56:11.815Z,61.30
2018-08-31T15:58:40.848Z,61.60
2018-08-31T16:01:09.873Z,61.10
2018-08-31T16:03:39.301Z,61.90
2018-08-31T16:06:09.171Z,61.00
2018-08-31T16:08:38.148Z,60.70
2018-08-31T16:11:07.101Z,60.90
2018-08-31T16:13:36.095Z,61.00
2018-08-31T16:16:05.024Z,61.00
2018-08-31T16:18:34.021Z,60.60
2018-08-31T16:21:03.009Z,60.90
2018-08-31T16:23:31.985Z,59.90
2018-08-31T16:26:00.968Z,60.50
2018-08-31T16:28:30.003Z,60.50
2018-08-31T16:30:59.026Z,60.60
2018-08-31T16:33:27.988Z,60.40
2018-08-31T16:35:56.917Z,60.00
2018-08-31T16:38:25.945Z,59.70
2018-08-31T16:40:54.894Z,60.20
2018-08-31T16:43:23.869Z,60.00
2018-08-31T16:45:52.969Z,60.10
2018-08-31T16:48:21.929Z,61.10
2018-08-31T16:50:50.848Z,60.40
2018-08-31T16:53:19.840Z,60.20
2018-08-31T16:55:48.804Z,60.00
2018-08-31T16:58:17.809Z,61.20
2018-08-31T17:00:46.754Z,59.80
2018-08-31T17:03:15.726Z,60.00
2018-08-31T17:05:44.697Z,60.10
2018-08-31T17:08:13.867Z,59.90
2018-08-31T17:10:42.839Z,59.80
2018-08-31T17:13:11.807Z,59.90
2018-08-31T17:15:40.791Z,59.70
2018-08-31T17:18:09.997Z,59.30
2018-08-31T17:20:38.920Z,59.70
2018-08-31T17:23:07.950Z,59.70
2018-08-31T17:25:36.949Z,59.80
2018-08-31T17:28:11.993Z,59.40
2018-08-31T17:30:40.958Z,59.40
2018-08-31T17:33:15.255Z,59.30
2018-08-31T17:35:49.471Z,59.70
2018-08-31T17:38:18.450Z,59.70
2018-08-31T17:40:47.379Z,59.70
2018-08-31T17:43:16.349Z,60.00
2018-08-31T17:45:45.396Z,60.20
2018-08-31T17:48:14.525Z,60.20
2018-08-31T17:50:43.519Z,60.00
2018-08-31T17:53:12.508Z,60.00
2018-08-31T17:55:41.458Z,60.40
2018-08-31T17:58:10.471Z,60.40
2018-08-31T18:00:39.462Z,60.40
2018-08-31T18:03:10.593Z,60.70
2018-08-31T18:05:39.565Z,60.40
2018-08-31T18:08:08.616Z,60.50
2018-08-31T18:10:37.565Z,60.70
2018-08-31T18:13:06.558Z,60.70
2018-08-31T18:15:35.500Z,60.60
2018-08-31T18:18:04.512Z,60.70
2018-08-31T18:20:33.492Z,60.90
2018-08-31T18:23:03.669Z,60.30
2018-08-31T18:25:32.572Z,60.90
2018-08-31T18:28:01.566Z,61.00
2018-08-31T18:30:30.493Z,61.10
2018-08-31T18:32:59.420Z,60.60
2018-08-31T18:35:28.550Z,60.90
2018-08-31T18:37:57.472Z,60.80
2018-08-31T18:40:26.465Z,61.00
2018-08-31T18:42:56.384Z,61.00
2018-08-31T18:45:25.589Z,60.80
2018-08-31T18:47:54.705Z,60.80
2018-08-31T18:50:23.709Z,61.00
2018-08-31T18:52:52.650Z,61.30
2018-08-31T18:55:21.668Z,61.00
2018-08-31T18:57:50.654Z,61.10
2018-08-31T19:00:19.628Z,61.40
2018-08-31T19:02:48.573Z,62.00
2018-08-31T19:05:17.534Z,62.30
2018-08-31T19:07:46.484Z,62.10
2018-08-31T19:10:15.549Z,62.80
2018-08-31T19:12:44.501Z,62.80
2018-08-31T19:15:13.472Z,61.90
2018-08-31T19:17:42.413Z,63.00
2018-08-31T19:20:11.383Z,61.70
2018-08-31T19:22:40.289Z,61.80
2018-08-31T19:25:09.528Z,62.10
2018-08-31T19:27:38.484Z,62.10
2018-08-31T19:30:07.688Z,62.00
2018-08-31T19:32:36.708Z,62.20
2018-08-31T19:35:05.752Z,62.20
2018-08-31T19:37:34.750Z,61.80
2018-08-31T19:40:03.765Z,61.70
2018-08-31T19:42:32.693Z,62.00
2018-08-31T19:45:01.644Z,61.70
2018-08-31T19:47:30.783Z,62.00
2018-08-31T19:50:00.004Z,62.30
2018-08-31T19:52:29.189Z,62.00
2018-08-31T19:54:58.198Z,62.10
2018-08-31T19:57:27.189Z,62.00
2018-08-31T19:59:56.185Z,62.20
2018-08-31T20:02:25.109Z,62.30
2018-08-31T20:04:54.126Z,62.30
2018-08-31T20:07:23.089Z,62.30
2018-08-31T20:09:52.053Z,62.30
2018-08-31T20:12:20.977Z,62.30
2018-08-31T20:14:50.086Z,62.40
2018-08-31T20:17:19.126Z,62.60
2018-08-31T20:19:48.114Z,62.80
2018-08-31T20:22:17.097Z,62.20
2018-08-31T20:24:46.172Z,62.50
2018-08-31T20:27:15.150Z,62.20
2018-08-31T20:29:44.126Z,62.50
2018-08-31T20:32:13.154Z,62.20
2018-08-31T20:34:42.414Z,62.20
2018-08-31T20:37:11.442Z,63.50
2018-08-31T20:39:40.394Z,62.50
2018-08-31T20:42:09.408Z,62.50
2018-08-31T20:44:38.326Z,62.80
2018-08-31T20:47:07.390Z,62.60
2018-08-31T20:49:36.366Z,61.30
2018-08-31T20:52:05.428Z,62.20
2018-08-31T20:54:34.425Z,62.20
2018-08-31T20:57:03.385Z,62.50
2018-08-31T20:59:32.309Z,62.00
2018-08-31T21:02:01.272Z,62.00
2018-08-31T21:04:30.209Z,62.00
2018-08-31T21:06:59.244Z,62.50
2018-08-31T21:09:28.154Z,61.90
2018-08-31T21:11:57.109Z,62.40
2018-08-31T21:14:26.022Z,62.20
2018-08-31T21:16:55.072Z,62.20
2018-08-31T21:19:24.005Z,62.20
2018-08-31T21:21:52.961Z,62.30
2018-08-31T21:24:21.926Z,62.20
2018-08-31T21:26:50.892Z,62.20
2018-08-31T21:29:19.832Z,62.70
2018-08-31T21:31:48.813Z,62.50
2018-08-31T21:34:17.769Z,62.60
2018-08-31T21:36:46.865Z,62.80
2018-08-31T21:39:16.695Z,62.90
2018-08-31T21:41:45.789Z,62.40
2018-08-31T21:44:14.713Z,62.90
2018-08-31T21:46:43.698Z,62.80
2018-08-31T21:49:12.651Z,62.50
2018-08-31T21:51:41.613Z,62.70
2018-08-31T21:54:10.508Z,62.20
2018-08-31T21:56:39.454Z,62.10
2018-08-31T21:59:08.729Z,62.50
2018-08-31T22:01:39.337Z,62.70
2018-08-31T22:04:09.612Z,62.20
2018-08-31T22:06:39.066Z,62.40
2018-08-31T22:09:09.544Z,62.80
2018-08-31T22:11:38.517Z,62.90
2018-08-31T22:14:07.437Z,62.50
2018-08-31T22:16:36.365Z,62.60
2018-08-31T22:19:05.425Z,62.80
2018-08-31T22:21:34.554Z,62.90
2018-08-31T22:24:03.509Z,63.00
2018-08-31T22:26:32.477Z,63.10
2018-08-31T22:29:01.406Z,63.30
2018-08-31T22:31:30.364Z,63.40
2018-08-31T22:33:59.310Z,63.00
2018-08-31T22:36:28.284Z,62.90
2018-08-31T22:38:57.228Z,63.30
2018-08-31T22:41:26.186Z,64.60
2018-08-31T22:43:55.136Z,63.50
2018-08-31T22:46:24.924Z,63.40
2018-08-31T22:48:53.953Z,64.30
2018-08-31T22:51:23.105Z,63.50
2018-08-31T22:53:52.037Z,63.70
2018-08-31T22:56:21.007Z,64.00
2018-08-31T22:58:49.929Z,64.10
2018-08-31T23:01:18.944Z,64.00
2018-08-31T23:03:47.948Z,64.10
2018-08-31T23:06:16.910Z,64.20
2018-08-31T23:08:45.880Z,64.30
2018-08-31T23:11:14.892Z,64.30
2018-08-31T23:13:44.675Z,64.00
2018-08-31T23:16:14.108Z,64.30
2018-08-31T23:18:43.067Z,64.60
2018-08-31T23:21:11.997Z,64.80
2018-08-31T23:23:46.013Z,64.60
2018-08-31T23:26:14.969Z,64.60
2018-08-31T23:28:44.008Z,64.60
2018-08-31T23:31:12.937Z,64.60
2018-08-31T23:33:41.890Z,64.80
2018-08-31T23:36:10.816Z,65.10
2018-08-31T23:38:39.769Z,65.50
2018-08-31T23:41:08.688Z,65.60
2018-08-31T23:43:37.656Z,65.70
2018-08-31T23:46:06.587Z,65.50
2018-08-31T23:48:35.590Z,65.20
2018-08-31T23:51:04.583Z,65.30
2018-08-31T23:53:33.546Z,65.30
2018-08-31T23:56:02.670Z,65.10
2018-08-31T23:58:31.647Z,65.30
